Hellin, Spain
Current Conditions -  °F | °C
As of 4:00 PM on Wednesday 22 Oct 2014 (Local Time) from LEAB Reporting Station
Clear Clear  
Wind Chill: 77°   Ceiling: Unl
Heat Index: 77°   Visibility: 6mi
Dew Point: 27°   Wind: 9mph
Humidity: 16%   Direction: 310°NW
Pressure: 30.27"   Gusts: NA
Location:  38.51°N, 1.7°W
Report Text: LEAB 221400Z 31008KT 280V340 CAVOK 25/M03 Q1025 NOSIG
Loading
Personal Weather Stations






























Interactive Weather Map
Tropical Storm Tracking
New forecast layout! Learn more

10-Day Weather Forecast

Advertisements
Track Severe Weather on mobile